createdAt,value
2019-02-21T00:02:04.149Z,12.28
2019-02-21T00:07:59.125Z,12.63
2019-02-21T00:13:54.137Z,11.99
2019-02-21T00:19:49.122Z,11.53
2019-02-21T00:25:44.125Z,14.45
2019-02-21T00:31:40.097Z,11.16
2019-02-21T00:37:34.141Z,12.55
2019-02-21T00:43:29.137Z,14.28
2019-02-21T00:49:24.183Z,13.37
2019-02-21T00:55:19.179Z,12.35
2019-02-21T01:01:14.126Z,10.9
2019-02-21T01:07:09.136Z,11.73
2019-02-21T01:13:04.131Z,10.43
2019-02-21T01:18:59.159Z,11.57
2019-02-21T01:24:54.169Z,11.83
2019-02-21T01:30:56.590Z,10.85
2019-02-21T01:36:44.166Z,10.94
2019-02-21T01:42:39.156Z,11.07
2019-02-21T01:48:34.178Z,10.87
2019-02-21T01:54:29.187Z,10.55
2019-02-21T02:00:24.163Z,9.7
2019-02-21T02:06:19.209Z,10.87
2019-02-21T02:12:14.169Z,11.83
2019-02-21T02:18:09.173Z,10.43
2019-02-21T02:24:04.194Z,9.64
2019-02-21T02:29:59.195Z,9.32
2019-02-21T02:35:54.195Z,10.05
2019-02-21T02:41:49.201Z,9.35
2019-02-21T02:47:44.203Z,10.37
2019-02-21T02:53:39.217Z,12.33
2019-02-21T02:59:40.516Z,11.72
2019-02-21T03:05:29.202Z,11.96
2019-02-21T03:11:24.220Z,11.52
2019-02-21T03:17:19.212Z,11.26
2019-02-21T03:23:14.238Z,10.9
2019-02-21T03:29:09.206Z,10.97
2019-02-21T03:35:04.291Z,12.6
2019-02-21T03:40:59.224Z,12.28
2019-02-21T03:46:54.207Z,12.9
2019-02-21T03:52:49.218Z,13.08
2019-02-21T03:58:44.238Z,13.35
2019-02-21T04:04:39.239Z,11.68
2019-02-21T04:10:34.244Z,12.13
2019-02-21T04:16:29.228Z,11.76
2019-02-21T04:22:24.247Z,11.91
2019-02-21T04:28:19.291Z,10.68
2019-02-21T04:34:14.274Z,11.32
2019-02-21T04:40:09.229Z,12.33
2019-02-21T04:46:04.247Z,12.76
2019-02-21T04:51:59.268Z,12.75
2019-02-21T04:57:54.249Z,13.5
2019-02-21T05:03:49.264Z,14.97
2019-02-21T05:09:44.260Z,14.71
2019-02-21T05:15:39.294Z,15.35
2019-02-21T05:21:34.310Z,13.51
2019-02-21T05:27:29.253Z,14.85
2019-02-21T05:33:24.289Z,13.03
2019-02-21T05:39:19.276Z,13.42
2019-02-21T05:45:14.272Z,12.27
2019-02-21T05:51:09.259Z,12.47
2019-02-21T05:57:04.317Z,15.03
2019-02-21T06:02:59.276Z,13.23
2019-02-21T06:08:54.311Z,12.88
2019-02-21T06:14:49.308Z,14.07
2019-02-21T06:20:44.358Z,13.67
2019-02-21T06:26:39.591Z,13.54
2019-02-21T06:32:34.332Z,15.65
2019-02-21T06:38:29.317Z,14.4
2019-02-21T06:44:24.445Z,15.85
2019-02-21T06:50:26.310Z,14.96
2019-02-21T06:56:14.319Z,15.58
2019-02-21T07:02:09.351Z,15.97
2019-02-21T07:08:04.349Z,17.45
2019-02-21T07:13:59.321Z,15.69
2019-02-21T07:19:54.322Z,14.23
2019-02-21T07:25:50.593Z,16.5
2019-02-21T07:31:44.312Z,15.97
2019-02-21T07:37:42.004Z,15.91
2019-02-21T07:43:34.331Z,16.97
2019-02-21T07:49:29.364Z,18.18
2019-02-21T07:55:24.333Z,19.58
2019-02-21T08:01:19.328Z,19.85
2019-02-21T08:07:14.347Z,19.95
2019-02-21T08:13:09.358Z,19.31
2019-02-21T08:19:04.368Z,24.69
2019-02-21T08:24:59.350Z,30.03
2019-02-21T08:30:54.407Z,28.57
2019-02-21T08:36:49.343Z,27.99
2019-02-21T08:42:44.371Z,29.44
2019-02-21T08:48:40.470Z,27.36
2019-02-21T08:54:34.423Z,26.71
2019-02-21T09:00:31.397Z,27.77
2019-02-21T09:06:24.835Z,29.48
2019-02-21T09:12:19.447Z,28.89
2019-02-21T09:18:14.386Z,28.91
2019-02-21T09:24:09.402Z,29.07
2019-02-21T09:30:05.202Z,28.53
2019-02-21T09:35:59.455Z,29.18
2019-02-21T09:41:54.392Z,28.43
2019-02-21T09:47:49.439Z,27.82
2019-02-21T09:53:44.440Z,27.8
2019-02-21T09:59:39.403Z,30.05
2019-02-21T10:05:34.495Z,29.42
2019-02-21T10:11:29.406Z,28.01
2019-02-21T10:17:24.440Z,27.27
2019-02-21T10:23:19.423Z,22.74
2019-02-21T10:29:14.427Z,29.75
2019-02-21T10:35:09.423Z,26.43
2019-02-21T10:41:04.436Z,28.73
2019-02-21T10:46:59.424Z,31.6
2019-02-21T10:52:54.434Z,33.14
2019-02-21T10:58:49.439Z,31.25
2019-02-21T11:04:54.301Z,31.95
2019-02-21T11:10:39.476Z,24.36
2019-02-21T11:16:34.466Z,23
2019-02-21T11:22:29.468Z,20.3
2019-02-21T11:28:24.477Z,25.78
2019-02-21T11:34:19.474Z,24.99
2019-02-21T11:40:14.485Z,24.41
2019-02-21T11:46:09.542Z,25.57
2019-02-21T11:52:09.986Z,19.1
2019-02-21T11:57:59.473Z,18.07
2019-02-21T12:03:54.494Z,17.05
2019-02-21T12:09:49.487Z,19.01
2019-02-21T12:15:44.472Z,18.66
2019-02-21T12:21:39.495Z,18.63
2019-02-21T12:27:34.484Z,17.17
2019-02-21T12:33:29.515Z,17.82
2019-02-21T12:39:24.492Z,14.53
2019-02-21T12:45:19.501Z,14.7
2019-02-21T12:51:14.569Z,13.96
2019-02-21T12:57:09.557Z,15.97
2019-02-21T13:03:04.537Z,18.76
2019-02-21T13:08:59.531Z,16.72
2019-02-21T13:14:54.523Z,19.8
2019-02-21T13:20:49.534Z,19.58
2019-02-21T13:26:44.611Z,20.02
2019-02-21T13:32:39.562Z,18.87
2019-02-21T13:38:34.564Z,14.96
2019-02-21T13:44:29.550Z,16
2019-02-21T13:50:24.574Z,15.92
2019-02-21T13:56:19.584Z,14.94
2019-02-21T14:02:15.407Z,15.17
2019-02-21T14:08:09.563Z,14.57
2019-02-21T14:14:04.575Z,16.83
2019-02-21T14:19:59.592Z,16.24
2019-02-21T14:25:54.600Z,15.48
2019-02-21T14:31:49.568Z,15.34
2019-02-21T14:37:44.583Z,15.31
2019-02-21T14:43:39.603Z,15.11
2019-02-21T14:49:34.610Z,14.23
2019-02-21T14:55:30.239Z,14.16
2019-02-21T15:01:24.601Z,14.88
2019-02-21T15:07:19.592Z,17.47
2019-02-21T15:13:14.591Z,14.69
2019-02-21T15:19:09.629Z,15.13
2019-02-21T15:25:04.621Z,14.72
2019-02-21T15:30:59.618Z,13.8
2019-02-21T15:36:54.629Z,13.06
2019-02-21T15:42:52.272Z,19.79
2019-02-21T15:48:44.835Z,15.15
2019-02-21T15:54:39.637Z,13.99
2019-02-21T16:00:34.648Z,12.11
2019-02-21T16:06:29.697Z,11.4
2019-02-21T16:12:24.743Z,12.5
2019-02-21T16:18:19.644Z,11.77
2019-02-21T16:24:14.671Z,10.94
2019-02-21T16:30:09.657Z,11.18
2019-02-21T16:36:04.707Z,10.91
2019-02-21T16:41:59.676Z,11.61
2019-02-21T16:47:54.661Z,12.23
2019-02-21T16:53:49.708Z,12.65
2019-02-21T16:59:44.681Z,12.81
2019-02-21T17:05:39.673Z,13.88
2019-02-21T17:11:34.715Z,12.84
2019-02-21T17:17:29.709Z,14.1
2019-02-21T17:23:24.689Z,13.48
2019-02-21T17:29:19.699Z,13.72
2019-02-21T17:35:14.725Z,16.87
2019-02-21T17:41:09.706Z,17.6
2019-02-21T17:47:04.737Z,28.48
2019-02-21T17:52:59.708Z,19.66
2019-02-21T17:58:54.725Z,16.57
2019-02-21T18:04:49.723Z,16.43
2019-02-21T18:10:44.745Z,17.1
2019-02-21T18:16:39.720Z,18.28
2019-02-21T18:22:34.735Z,22.34
2019-02-21T18:28:29.751Z,19.55
2019-02-21T18:34:24.727Z,17.1
2019-02-21T18:40:20.697Z,17.43
2019-02-21T18:46:14.843Z,19.09
2019-02-21T18:52:09.778Z,18.15
2019-02-21T18:58:04.735Z,19.01
2019-02-21T19:03:59.780Z,17.86
2019-02-21T19:09:54.763Z,19.2
2019-02-21T19:15:49.817Z,20.28
2019-02-21T19:21:44.760Z,20.21
2019-02-21T19:27:39.750Z,20.1
2019-02-21T19:33:34.748Z,18.58
2019-02-21T19:39:29.764Z,19.03
2019-02-21T19:45:24.792Z,18.9
2019-02-21T19:51:19.758Z,23.52
2019-02-21T19:57:14.765Z,22.21
2019-02-21T20:03:09.799Z,22.81
2019-02-21T20:09:04.785Z,20.4
2019-02-21T20:14:59.779Z,20.45
2019-02-21T20:20:54.831Z,22.22
2019-02-21T20:26:49.826Z,22.39
2019-02-21T20:32:44.788Z,21.7
2019-02-21T20:38:39.797Z,22.32
2019-02-21T20:44:34.830Z,20.46
2019-02-21T20:50:29.834Z,19.64
2019-02-21T20:56:24.809Z,20.54
2019-02-21T21:02:19.819Z,19.56
2019-02-21T21:08:14.821Z,19.22
2019-02-21T21:14:09.854Z,19.53
2019-02-21T21:20:15.500Z,20.26
2019-02-21T21:25:59.830Z,20.63
2019-02-21T21:31:54.848Z,29.71
2019-02-21T21:37:49.838Z,22.9
2019-02-21T21:43:44.858Z,22.33
2019-02-21T21:55:34.851Z,21.27
2019-02-21T21:55:34.924Z,19.46
2019-02-21T22:01:29.936Z,23.21
2019-02-21T22:07:24.860Z,27.79
2019-02-21T22:13:19.879Z,31.48
2019-02-21T22:19:14.859Z,32.51
2019-02-21T22:25:09.863Z,31.9
2019-02-21T22:31:04.902Z,29.25
2019-02-21T22:36:59.878Z,30.04
2019-02-21T22:42:54.905Z,27.33
2019-02-21T22:48:49.912Z,29.94
2019-02-21T22:54:44.877Z,30.93
2019-02-21T23:00:39.918Z,29.78
2019-02-21T23:06:34.893Z,28.97
2019-02-21T23:12:29.894Z,29.84
2019-02-21T23:18:24.891Z,28.89
2019-02-21T23:24:19.920Z,29.82
2019-02-21T23:30:14.913Z,31.52
2019-02-21T23:36:09.902Z,30.97
2019-02-21T23:42:04.901Z,31.6
2019-02-21T23:47:59.916Z,32.05
2019-02-21T23:54:02.675Z,32.47
2019-02-21T23:59:49.935Z,31.82
